sensor_id;sensor_type;location;lat;lon;timestamp;P1;durP1;ratioP1;P2;durP2;ratioP2
72924;SDS011;61070;50.794;7.054;2022-08-07T00:00:21;3.35;;;1.25;;
72924;SDS011;61070;50.794;7.054;2022-08-07T00:02:46;3.20;;;1.52;;
72924;SDS011;61070;50.794;7.054;2022-08-07T00:05:12;5.00;;;1.80;;
72924;SDS011;61070;50.794;7.054;2022-08-07T00:07:37;4.57;;;2.10;;
72924;SDS011;61070;50.794;7.054;2022-08-07T00:10:02;1.58;;;1.20;;
72924;SDS011;61070;50.794;7.054;2022-08-07T00:12:28;5.18;;;1.23;;
72924;SDS011;61070;50.794;7.054;2022-08-07T00:14:53;3.37;;;1.67;;
72924;SDS011;61070;50.794;7.054;2022-08-07T00:17:19;4.15;;;1.70;;
72924;SDS011;61070;50.794;7.054;2022-08-07T00:19:44;9.35;;;5.50;;
72924;SDS011;61070;50.794;7.054;2022-08-07T00:22:10;3.03;;;1.35;;
72924;SDS011;61070;50.794;7.054;2022-08-07T00:24:36;4.93;;;1.83;;
72924;SDS011;61070;50.794;7.054;2022-08-07T00:27:01;4.63;;;2.55;;
72924;SDS011;61070;50.794;7.054;2022-08-07T00:29:26;8.77;;;4.07;;
72924;SDS011;61070;50.794;7.054;2022-08-07T00:31:53;5.57;;;3.10;;
72924;SDS011;61070;50.794;7.054;2022-08-07T00:34:23;6.20;;;2.40;;
72924;SDS011;61070;50.794;7.054;2022-08-07T00:36:51;4.75;;;3.05;;
72924;SDS011;61070;50.794;7.054;2022-08-07T00:39:17;7.88;;;2.80;;
72924;SDS011;61070;50.794;7.054;2022-08-07T00:41:50;4.30;;;1.95;;
72924;SDS011;61070;50.794;7.054;2022-08-07T00:44:21;3.70;;;1.67;;
72924;SDS011;61070;50.794;7.054;2022-08-07T00:46:47;4.88;;;2.03;;
72924;SDS011;61070;50.794;7.054;2022-08-07T00:49:13;1.67;;;1.27;;
72924;SDS011;61070;50.794;7.054;2022-08-07T00:51:38;2.70;;;1.50;;
72924;SDS011;61070;50.794;7.054;2022-08-07T00:54:03;2.38;;;1.70;;
72924;SDS011;61070;50.794;7.054;2022-08-07T00:56:29;3.85;;;1.40;;
72924;SDS011;61070;50.794;7.054;2022-08-07T00:58:55;4.05;;;1.30;;
72924;SDS011;61070;50.794;7.054;2022-08-07T01:01:20;1.88;;;1.33;;
72924;SDS011;61070;50.794;7.054;2022-08-07T01:03:47;3.17;;;1.60;;
72924;SDS011;61070;50.794;7.054;2022-08-07T01:06:16;3.33;;;1.60;;
72924;SDS011;61070;50.794;7.054;2022-08-07T01:08:42;3.13;;;1.40;;
72924;SDS011;61070;50.794;7.054;2022-08-07T01:11:08;3.03;;;1.30;;
72924;SDS011;61070;50.794;7.054;2022-08-07T01:13:34;3.17;;;1.33;;
72924;SDS011;61070;50.794;7.054;2022-08-07T01:16:00;3.75;;;1.60;;
72924;SDS011;61070;50.794;7.054;2022-08-07T01:18:27;2.65;;;1.15;;
72924;SDS011;61070;50.794;7.054;2022-08-07T01:21:15;3.42;;;1.85;;
72924;SDS011;61070;50.794;7.054;2022-08-07T01:23:42;2.17;;;1.77;;
72924;SDS011;61070;50.794;7.054;2022-08-07T01:26:10;2.78;;;1.60;;
72924;SDS011;61070;50.794;7.054;2022-08-07T01:28:37;3.35;;;1.83;;
72924;SDS011;61070;50.794;7.054;2022-08-07T01:31:04;3.30;;;1.40;;
72924;SDS011;61070;50.794;7.054;2022-08-07T01:33:30;1.63;;;1.38;;
72924;SDS011;61070;50.794;7.054;2022-08-07T01:35:56;4.93;;;1.50;;
72924;SDS011;61070;50.794;7.054;2022-08-07T01:38:24;5.78;;;1.88;;
72924;SDS011;61070;50.794;7.054;2022-08-07T01:40:52;3.83;;;1.60;;
72924;SDS011;61070;50.794;7.054;2022-08-07T01:43:19;2.88;;;1.65;;
72924;SDS011;61070;50.794;7.054;2022-08-07T01:45:44;3.08;;;1.90;;
72924;SDS011;61070;50.794;7.054;2022-08-07T01:48:11;2.42;;;1.40;;
72924;SDS011;61070;50.794;7.054;2022-08-07T01:50:37;5.05;;;1.58;;
72924;SDS011;61070;50.794;7.054;2022-08-07T01:53:04;4.60;;;1.70;;
72924;SDS011;61070;50.794;7.054;2022-08-07T01:55:36;2.30;;;1.17;;
72924;SDS011;61070;50.794;7.054;2022-08-07T01:58:06;3.80;;;1.52;;
72924;SDS011;61070;50.794;7.054;2022-08-07T02:00:34;5.10;;;1.90;;
72924;SDS011;61070;50.794;7.054;2022-08-07T02:03:06;2.55;;;1.58;;
72924;SDS011;61070;50.794;7.054;2022-08-07T02:05:37;5.05;;;1.80;;
72924;SDS011;61070;50.794;7.054;2022-08-07T02:08:07;3.97;;;1.70;;
72924;SDS011;61070;50.794;7.054;2022-08-07T02:10:40;3.20;;;1.70;;
72924;SDS011;61070;50.794;7.054;2022-08-07T02:13:06;8.32;;;1.75;;
72924;SDS011;61070;50.794;7.054;2022-08-07T02:15:33;3.40;;;2.00;;
72924;SDS011;61070;50.794;7.054;2022-08-07T02:18:01;7.10;;;1.90;;
72924;SDS011;61070;50.794;7.054;2022-08-07T02:20:28;5.30;;;1.70;;
72924;SDS011;61070;50.794;7.054;2022-08-07T02:22:56;4.10;;;1.70;;
72924;SDS011;61070;50.794;7.054;2022-08-07T02:25:26;5.60;;;2.15;;
72924;SDS011;61070;50.794;7.054;2022-08-07T02:27:54;5.80;;;1.80;;
72924;SDS011;61070;50.794;7.054;2022-08-07T02:30:22;3.05;;;1.63;;
72924;SDS011;61070;50.794;7.054;2022-08-07T02:32:49;7.45;;;1.80;;
72924;SDS011;61070;50.794;7.054;2022-08-07T02:35:17;4.88;;;2.00;;
72924;SDS011;61070;50.794;7.054;2022-08-07T02:37:44;3.10;;;1.90;;
72924;SDS011;61070;50.794;7.054;2022-08-07T02:40:12;3.33;;;1.70;;
72924;SDS011;61070;50.794;7.054;2022-08-07T02:42:38;7.95;;;2.35;;
72924;SDS011;61070;50.794;7.054;2022-08-07T02:45:04;6.15;;;2.05;;
72924;SDS011;61070;50.794;7.054;2022-08-07T02:47:32;10.30;;;2.20;;
72924;SDS011;61070;50.794;7.054;2022-08-07T02:49:58;7.53;;;2.08;;
72924;SDS011;61070;50.794;7.054;2022-08-07T02:52:34;2.75;;;2.10;;
72924;SDS011;61070;50.794;7.054;2022-08-07T02:55:26;3.20;;;2.00;;
72924;SDS011;61070;50.794;7.054;2022-08-07T02:57:55;5.25;;;1.90;;
72924;SDS011;61070;50.794;7.054;2022-08-07T03:00:26;3.88;;;1.85;;
72924;SDS011;61070;50.794;7.054;2022-08-07T03:02:53;2.70;;;1.77;;
72924;SDS011;61070;50.794;7.054;2022-08-07T03:05:19;6.28;;;1.83;;
72924;SDS011;61070;50.794;7.054;2022-08-07T03:07:44;3.72;;;1.65;;
72924;SDS011;61070;50.794;7.054;2022-08-07T03:10:11;3.15;;;1.95;;
72924;SDS011;61070;50.794;7.054;2022-08-07T03:12:37;3.58;;;1.70;;
72924;SDS011;61070;50.794;7.054;2022-08-07T03:15:04;6.80;;;1.83;;
72924;SDS011;61070;50.794;7.054;2022-08-07T03:17:31;3.90;;;1.67;;
72924;SDS011;61070;50.794;7.054;2022-08-07T03:19:57;3.55;;;1.90;;
72924;SDS011;61070;50.794;7.054;2022-08-07T03:22:24;4.95;;;2.28;;
72924;SDS011;61070;50.794;7.054;2022-08-07T03:24:51;8.15;;;2.13;;
72924;SDS011;61070;50.794;7.054;2022-08-07T03:27:17;3.67;;;1.60;;
72924;SDS011;61070;50.794;7.054;2022-08-07T03:29:44;3.88;;;1.30;;
72924;SDS011;61070;50.794;7.054;2022-08-07T03:32:13;7.70;;;2.28;;
72924;SDS011;61070;50.794;7.054;2022-08-07T03:34:44;3.03;;;1.88;;
72924;SDS011;61070;50.794;7.054;2022-08-07T03:37:12;2.45;;;1.80;;
72924;SDS011;61070;50.794;7.054;2022-08-07T03:39:40;2.80;;;1.60;;
72924;SDS011;61070;50.794;7.054;2022-08-07T03:42:06;4.85;;;2.05;;
72924;SDS011;61070;50.794;7.054;2022-08-07T03:44:32;3.58;;;1.60;;
72924;SDS011;61070;50.794;7.054;2022-08-07T03:46:59;5.72;;;1.80;;
72924;SDS011;61070;50.794;7.054;2022-08-07T03:49:26;3.47;;;1.50;;
72924;SDS011;61070;50.794;7.054;2022-08-07T03:51:52;4.75;;;1.70;;
72924;SDS011;61070;50.794;7.054;2022-08-07T03:54:20;2.33;;;1.48;;
72924;SDS011;61070;50.794;7.054;2022-08-07T03:56:46;3.90;;;1.60;;
72924;SDS011;61070;50.794;7.054;2022-08-07T03:59:13;1.98;;;1.45;;
72924;SDS011;61070;50.794;7.054;2022-08-07T04:01:39;4.80;;;1.58;;
72924;SDS011;61070;50.794;7.054;2022-08-07T04:04:06;3.38;;;1.55;;
72924;SDS011;61070;50.794;7.054;2022-08-07T04:06:31;3.20;;;1.70;;
72924;SDS011;61070;50.794;7.054;2022-08-07T04:08:58;1.63;;;1.50;;
72924;SDS011;61070;50.794;7.054;2022-08-07T04:11:25;2.53;;;1.63;;
72924;SDS011;61070;50.794;7.054;2022-08-07T04:13:51;6.00;;;1.92;;
72924;SDS011;61070;50.794;7.054;2022-08-07T04:16:17;5.63;;;1.90;;
72924;SDS011;61070;50.794;7.054;2022-08-07T04:18:44;4.03;;;1.80;;
72924;SDS011;61070;50.794;7.054;2022-08-07T04:21:10;7.88;;;1.90;;
72924;SDS011;61070;50.794;7.054;2022-08-07T04:23:35;5.53;;;1.80;;
72924;SDS011;61070;50.794;7.054;2022-08-07T04:26:02;5.70;;;1.92;;
72924;SDS011;61070;50.794;7.054;2022-08-07T04:28:28;6.95;;;1.90;;
72924;SDS011;61070;50.794;7.054;2022-08-07T04:30:54;5.28;;;1.70;;
72924;SDS011;61070;50.794;7.054;2022-08-07T04:33:19;2.22;;;1.73;;
72924;SDS011;61070;50.794;7.054;2022-08-07T04:35:45;8.73;;;2.03;;
72924;SDS011;61070;50.794;7.054;2022-08-07T04:38:11;3.97;;;1.83;;
72924;SDS011;61070;50.794;7.054;2022-08-07T04:40:38;4.57;;;1.52;;
72924;SDS011;61070;50.794;7.054;2022-08-07T04:43:05;3.63;;;1.98;;
72924;SDS011;61070;50.794;7.054;2022-08-07T04:45:37;3.47;;;1.65;;
72924;SDS011;61070;50.794;7.054;2022-08-07T04:48:09;2.58;;;1.63;;
72924;SDS011;61070;50.794;7.054;2022-08-07T04:50:49;3.30;;;1.58;;
72924;SDS011;61070;50.794;7.054;2022-08-07T04:53:23;1.95;;;1.50;;
72924;SDS011;61070;50.794;7.054;2022-08-07T04:56:05;7.95;;;2.45;;
72924;SDS011;61070;50.794;7.054;2022-08-07T04:58:53;3.30;;;1.60;;
72924;SDS011;61070;50.794;7.054;2022-08-07T05:01:28;4.72;;;2.55;;
72924;SDS011;61070;50.794;7.054;2022-08-07T05:04:05;4.03;;;1.70;;
72924;SDS011;61070;50.794;7.054;2022-08-07T05:09:25;2.95;;;1.50;;
72924;SDS011;61070;50.794;7.054;2022-08-07T05:11:56;3.33;;;1.40;;
72924;SDS011;61070;50.794;7.054;2022-08-07T05:14:29;5.97;;;1.65;;
72924;SDS011;61070;50.794;7.054;2022-08-07T05:16:59;1.90;;;1.48;;
72924;SDS011;61070;50.794;7.054;2022-08-07T05:19:30;3.13;;;1.55;;
72924;SDS011;61070;50.794;7.054;2022-08-07T05:22:01;3.38;;;1.95;;
72924;SDS011;61070;50.794;7.054;2022-08-07T05:24:28;2.47;;;1.50;;
72924;SDS011;61070;50.794;7.054;2022-08-07T05:26:56;2.35;;;1.52;;
72924;SDS011;61070;50.794;7.054;2022-08-07T05:29:24;2.15;;;1.80;;
72924;SDS011;61070;50.794;7.054;2022-08-07T05:31:51;3.30;;;1.60;;
72924;SDS011;61070;50.794;7.054;2022-08-07T05:34:17;3.25;;;2.15;;
72924;SDS011;61070;50.794;7.054;2022-08-07T05:36:48;2.63;;;1.73;;
72924;SDS011;61070;50.794;7.054;2022-08-07T05:39:15;2.47;;;1.85;;
72924;SDS011;61070;50.794;7.054;2022-08-07T05:41:42;3.45;;;1.75;;
72924;SDS011;61070;50.794;7.054;2022-08-07T05:44:11;5.30;;;2.10;;
72924;SDS011;61070;50.794;7.054;2022-08-07T05:46:37;3.60;;;1.80;;
72924;SDS011;61070;50.794;7.054;2022-08-07T05:49:04;2.90;;;1.92;;
72924;SDS011;61070;50.794;7.054;2022-08-07T05:51:31;3.38;;;2.20;;
72924;SDS011;61070;50.794;7.054;2022-08-07T05:53:57;7.28;;;2.00;;
72924;SDS011;61070;50.794;7.054;2022-08-07T05:56:22;2.80;;;2.10;;
72924;SDS011;61070;50.794;7.054;2022-08-07T05:58:48;11.15;;;2.08;;
72924;SDS011;61070;50.794;7.054;2022-08-07T06:01:14;9.13;;;2.10;;
72924;SDS011;61070;50.794;7.054;2022-08-07T06:03:42;6.55;;;2.63;;
72924;SDS011;61070;50.794;7.054;2022-08-07T06:06:12;7.72;;;2.03;;
72924;SDS011;61070;50.794;7.054;2022-08-07T06:08:41;1.55;;;1.35;;
72924;SDS011;61070;50.794;7.054;2022-08-07T06:11:07;5.65;;;2.03;;
72924;SDS011;61070;50.794;7.054;2022-08-07T06:13:36;2.47;;;2.03;;
72924;SDS011;61070;50.794;7.054;2022-08-07T06:16:02;2.25;;;2.00;;
72924;SDS011;61070;50.794;7.054;2022-08-07T06:18:31;4.70;;;1.75;;
72924;SDS011;61070;50.794;7.054;2022-08-07T06:20:58;3.05;;;1.98;;
72924;SDS011;61070;50.794;7.054;2022-08-07T06:23:24;6.38;;;2.40;;
72924;SDS011;61070;50.794;7.054;2022-08-07T06:25:50;5.10;;;2.42;;
72924;SDS011;61070;50.794;7.054;2022-08-07T06:28:15;4.55;;;1.95;;
72924;SDS011;61070;50.794;7.054;2022-08-07T06:30:41;6.43;;;2.45;;
72924;SDS011;61070;50.794;7.054;2022-08-07T06:33:07;4.68;;;2.22;;
72924;SDS011;61070;50.794;7.054;2022-08-07T06:35:33;7.40;;;2.20;;
72924;SDS011;61070;50.794;7.054;2022-08-07T06:37:59;3.00;;;1.77;;
72924;SDS011;61070;50.794;7.054;2022-08-07T06:40:24;3.45;;;1.90;;
72924;SDS011;61070;50.794;7.054;2022-08-07T06:42:53;4.85;;;2.03;;
72924;SDS011;61070;50.794;7.054;2022-08-07T06:45:20;3.53;;;2.03;;
72924;SDS011;61070;50.794;7.054;2022-08-07T06:47:47;3.92;;;2.13;;
72924;SDS011;61070;50.794;7.054;2022-08-07T06:50:13;2.15;;;1.65;;
72924;SDS011;61070;50.794;7.054;2022-08-07T06:52:41;2.63;;;1.60;;
72924;SDS011;61070;50.794;7.054;2022-08-07T06:55:10;3.20;;;1.67;;
72924;SDS011;61070;50.794;7.054;2022-08-07T06:57:58;4.70;;;2.00;;
72924;SDS011;61070;50.794;7.054;2022-08-07T07:00:26;4.32;;;1.92;;
72924;SDS011;61070;50.794;7.054;2022-08-07T07:02:54;4.10;;;1.77;;
72924;SDS011;61070;50.794;7.054;2022-08-07T07:05:20;3.33;;;1.92;;
72924;SDS011;61070;50.794;7.054;2022-08-07T07:07:46;3.85;;;1.63;;
72924;SDS011;61070;50.794;7.054;2022-08-07T07:10:12;4.00;;;1.60;;
72924;SDS011;61070;50.794;7.054;2022-08-07T07:12:48;2.63;;;1.30;;
72924;SDS011;61070;50.794;7.054;2022-08-07T07:15:25;6.82;;;1.33;;
72924;SDS011;61070;50.794;7.054;2022-08-07T07:20:56;2.45;;;1.48;;
72924;SDS011;61070;50.794;7.054;2022-08-07T07:23:25;3.05;;;1.33;;
72924;SDS011;61070;50.794;7.054;2022-08-07T07:25:54;3.35;;;0.90;;
72924;SDS011;61070;50.794;7.054;2022-08-07T07:28:31;4.18;;;1.15;;
72924;SDS011;61070;50.794;7.054;2022-08-07T07:31:07;3.20;;;1.40;;
72924;SDS011;61070;50.794;7.054;2022-08-07T07:33:38;3.92;;;1.10;;
72924;SDS011;61070;50.794;7.054;2022-08-07T07:36:06;3.30;;;1.05;;
72924;SDS011;61070;50.794;7.054;2022-08-07T07:38:33;1.38;;;1.05;;
72924;SDS011;61070;50.794;7.054;2022-08-07T07:41:02;5.05;;;0.90;;
72924;SDS011;61070;50.794;7.054;2022-08-07T07:43:31;1.77;;;1.35;;
72924;SDS011;61070;50.794;7.054;2022-08-07T07:45:58;3.08;;;0.88;;
72924;SDS011;61070;50.794;7.054;2022-08-07T07:48:26;1.70;;;0.88;;
72924;SDS011;61070;50.794;7.054;2022-08-07T07:50:53;3.13;;;0.73;;
72924;SDS011;61070;50.794;7.054;2022-08-07T07:53:19;1.88;;;1.20;;
72924;SDS011;61070;50.794;7.054;2022-08-07T07:55:47;1.77;;;0.80;;
72924;SDS011;61070;50.794;7.054;2022-08-07T07:58:13;1.20;;;1.00;;
72924;SDS011;61070;50.794;7.054;2022-08-07T08:00:40;4.35;;;0.93;;
72924;SDS011;61070;50.794;7.054;2022-08-07T08:03:09;1.70;;;1.00;;
72924;SDS011;61070;50.794;7.054;2022-08-07T08:05:38;1.40;;;0.85;;
72924;SDS011;61070;50.794;7.054;2022-08-07T08:08:05;1.88;;;0.68;;
72924;SDS011;61070;50.794;7.054;2022-08-07T08:10:32;1.48;;;0.75;;
72924;SDS011;61070;50.794;7.054;2022-08-07T08:12:58;1.80;;;0.68;;
72924;SDS011;61070;50.794;7.054;2022-08-07T08:15:25;2.58;;;0.90;;
72924;SDS011;61070;50.794;7.054;2022-08-07T08:17:53;0.80;;;0.65;;
72924;SDS011;61070;50.794;7.054;2022-08-07T08:20:20;7.10;;;0.90;;
72924;SDS011;61070;50.794;7.054;2022-08-07T08:22:46;2.38;;;0.95;;
72924;SDS011;61070;50.794;7.054;2022-08-07T08:25:32;1.30;;;0.60;;
72924;SDS011;61070;50.794;7.054;2022-08-07T08:28:23;2.03;;;1.00;;
72924;SDS011;61070;50.794;7.054;2022-08-07T08:30:59;3.70;;;0.82;;
72924;SDS011;61070;50.794;7.054;2022-08-07T08:33:28;3.55;;;0.85;;
72924;SDS011;61070;50.794;7.054;2022-08-07T08:35:56;4.25;;;0.70;;
72924;SDS011;61070;50.794;7.054;2022-08-07T08:38:27;3.10;;;0.77;;
72924;SDS011;61070;50.794;7.054;2022-08-07T08:43:46;1.27;;;0.75;;
72924;SDS011;61070;50.794;7.054;2022-08-07T08:46:19;1.98;;;1.02;;
72924;SDS011;61070;50.794;7.054;2022-08-07T08:51:40;3.45;;;0.85;;
72924;SDS011;61070;50.794;7.054;2022-08-07T08:54:31;1.63;;;0.50;;
72924;SDS011;61070;50.794;7.054;2022-08-07T08:57:04;1.33;;;0.60;;
72924;SDS011;61070;50.794;7.054;2022-08-07T08:59:56;1.73;;;0.50;;
72924;SDS011;61070;50.794;7.054;2022-08-07T09:05:15;2.20;;;0.77;;
72924;SDS011;61070;50.794;7.054;2022-08-07T09:07:50;1.50;;;0.55;;
72924;SDS011;61070;50.794;7.054;2022-08-07T09:10:32;4.25;;;0.77;;
72924;SDS011;61070;50.794;7.054;2022-08-07T09:16:03;3.95;;;0.93;;
72924;SDS011;61070;50.794;7.054;2022-08-07T09:24:16;2.92;;;0.70;;
72924;SDS011;61070;50.794;7.054;2022-08-07T09:32:16;3.55;;;0.65;;
72924;SDS011;61070;50.794;7.054;2022-08-07T09:34:54;3.83;;;0.60;;
72924;SDS011;61070;50.794;7.054;2022-08-07T09:40:17;3.13;;;0.60;;
72924;SDS011;61070;50.794;7.054;2022-08-07T09:43:11;0.40;;;0.40;;
72924;SDS011;61070;50.794;7.054;2022-08-07T09:45:52;1.77;;;0.50;;
72924;SDS011;61070;50.794;7.054;2022-08-07T09:54:46;1.65;;;0.65;;
72924;SDS011;61070;50.794;7.054;2022-08-07T10:00:20;1.55;;;0.30;;
72924;SDS011;61070;50.794;7.054;2022-08-07T10:06:03;2.47;;;0.40;;
72924;SDS011;61070;50.794;7.054;2022-08-07T10:14:38;0.70;;;0.40;;
72924;SDS011;61070;50.794;7.054;2022-08-07T10:17:42;1.08;;;0.30;;
72924;SDS011;61070;50.794;7.054;2022-08-07T10:20:18;2.83;;;0.55;;
72924;SDS011;61070;50.794;7.054;2022-08-07T10:23:00;1.90;;;0.40;;
72924;SDS011;61070;50.794;7.054;2022-08-07T10:28:48;1.48;;;0.50;;
72924;SDS011;61070;50.794;7.054;2022-08-07T10:34:19;1.70;;;0.50;;
72924;SDS011;61070;50.794;7.054;2022-08-07T10:37:23;2.20;;;0.40;;
72924;SDS011;61070;50.794;7.054;2022-08-07T10:45:37;1.08;;;0.50;;
72924;SDS011;61070;50.794;7.054;2022-08-07T11:00:03;0.82;;;0.57;;
72924;SDS011;61070;50.794;7.054;2022-08-07T11:05:05;1.20;;;0.50;;
72924;SDS011;61070;50.794;7.054;2022-08-07T11:07:49;9.90;;;0.82;;
72924;SDS011;61070;50.794;7.054;2022-08-07T11:10:24;3.20;;;0.60;;
72924;SDS011;61070;50.794;7.054;2022-08-07T11:13:01;2.35;;;0.55;;
72924;SDS011;61070;50.794;7.054;2022-08-07T11:15:41;1.60;;;0.50;;
72924;SDS011;61070;50.794;7.054;2022-08-07T11:18:17;3.60;;;0.60;;
72924;SDS011;61070;50.794;7.054;2022-08-07T11:20:50;1.30;;;0.40;;
72924;SDS011;61070;50.794;7.054;2022-08-07T11:23:46;0.82;;;0.40;;
72924;SDS011;61070;50.794;7.054;2022-08-07T11:31:48;2.30;;;0.40;;
72924;SDS011;61070;50.794;7.054;2022-08-07T11:36:48;2.65;;;0.50;;
72924;SDS011;61070;50.794;7.054;2022-08-07T11:45:11;2.30;;;0.60;;
72924;SDS011;61070;50.794;7.054;2022-08-07T11:47:47;1.00;;;0.40;;
72924;SDS011;61070;50.794;7.054;2022-08-07T11:53:30;1.30;;;0.70;;
72924;SDS011;61070;50.794;7.054;2022-08-07T12:06:55;3.88;;;0.70;;
72924;SDS011;61070;50.794;7.054;2022-08-07T12:09:48;1.95;;;0.77;;
72924;SDS011;61070;50.794;7.054;2022-08-07T12:12:24;1.17;;;0.45;;
72924;SDS011;61070;50.794;7.054;2022-08-07T12:14:58;0.68;;;0.50;;
72924;SDS011;61070;50.794;7.054;2022-08-07T12:17:32;0.73;;;0.52;;
72924;SDS011;61070;50.794;7.054;2022-08-07T12:20:21;1.13;;;0.70;;
72924;SDS011;61070;50.794;7.054;2022-08-07T12:23:01;2.92;;;0.70;;
72924;SDS011;61070;50.794;7.054;2022-08-07T12:26:02;1.92;;;0.70;;
72924;SDS011;61070;50.794;7.054;2022-08-07T12:31:45;1.00;;;0.45;;
72924;SDS011;61070;50.794;7.054;2022-08-07T12:34:15;1.85;;;0.50;;
72924;SDS011;61070;50.794;7.054;2022-08-07T12:36:43;4.05;;;0.50;;
72924;SDS011;61070;50.794;7.054;2022-08-07T12:39:10;0.90;;;0.60;;
72924;SDS011;61070;50.794;7.054;2022-08-07T12:41:37;1.40;;;0.47;;
72924;SDS011;61070;50.794;7.054;2022-08-07T12:44:05;4.53;;;0.60;;
72924;SDS011;61070;50.794;7.054;2022-08-07T12:51:59;1.63;;;0.70;;
72924;SDS011;61070;50.794;7.054;2022-08-07T12:54:30;0.85;;;0.50;;
72924;SDS011;61070;50.794;7.054;2022-08-07T12:57:01;1.58;;;0.38;;
72924;SDS011;61070;50.794;7.054;2022-08-07T12:59:30;1.67;;;0.63;;
72924;SDS011;61070;50.794;7.054;2022-08-07T13:10:40;1.45;;;0.40;;
72924;SDS011;61070;50.794;7.054;2022-08-07T13:16:12;2.63;;;0.50;;
72924;SDS011;61070;50.794;7.054;2022-08-07T13:21:29;1.35;;;0.50;;
72924;SDS011;61070;50.794;7.054;2022-08-07T13:29:28;5.20;;;0.68;;
72924;SDS011;61070;50.794;7.054;2022-08-07T13:32:03;2.00;;;0.70;;
72924;SDS011;61070;50.794;7.054;2022-08-07T13:34:39;0.90;;;0.70;;
72924;SDS011;61070;50.794;7.054;2022-08-07T13:37:17;1.05;;;0.68;;
72924;SDS011;61070;50.794;7.054;2022-08-07T13:45:18;1.95;;;0.50;;
72924;SDS011;61070;50.794;7.054;2022-08-07T13:47:46;3.30;;;0.55;;
72924;SDS011;61070;50.794;7.054;2022-08-07T13:50:16;1.00;;;0.50;;
72924;SDS011;61070;50.794;7.054;2022-08-07T13:52:46;1.02;;;0.55;;
72924;SDS011;61070;50.794;7.054;2022-08-07T13:55:13;2.25;;;0.63;;
72924;SDS011;61070;50.794;7.054;2022-08-07T13:57:42;2.07;;;0.60;;
72924;SDS011;61070;50.794;7.054;2022-08-07T14:00:09;1.08;;;0.57;;
72924;SDS011;61070;50.794;7.054;2022-08-07T14:02:36;2.08;;;0.50;;
72924;SDS011;61070;50.794;7.054;2022-08-07T14:05:05;1.98;;;0.50;;
72924;SDS011;61070;50.794;7.054;2022-08-07T14:07:37;1.67;;;0.40;;
72924;SDS011;61070;50.794;7.054;2022-08-07T14:10:04;1.48;;;0.57;;
72924;SDS011;61070;50.794;7.054;2022-08-07T14:14:59;1.97;;;0.57;;
72924;SDS011;61070;50.794;7.054;2022-08-07T14:17:27;0.80;;;0.65;;
72924;SDS011;61070;50.794;7.054;2022-08-07T14:20:03;2.70;;;1.00;;
72924;SDS011;61070;50.794;7.054;2022-08-07T14:22:32;0.77;;;0.50;;
72924;SDS011;61070;50.794;7.054;2022-08-07T14:25:00;2.28;;;0.73;;
72924;SDS011;61070;50.794;7.054;2022-08-07T14:27:38;1.33;;;0.55;;
72924;SDS011;61070;50.794;7.054;2022-08-07T14:30:07;1.65;;;0.50;;
72924;SDS011;61070;50.794;7.054;2022-08-07T14:32:38;1.13;;;0.30;;
72924;SDS011;61070;50.794;7.054;2022-08-07T14:35:07;1.23;;;0.47;;
72924;SDS011;61070;50.794;7.054;2022-08-07T14:37:35;1.17;;;0.40;;
72924;SDS011;61070;50.794;7.054;2022-08-07T14:40:02;1.50;;;0.52;;
72924;SDS011;61070;50.794;7.054;2022-08-07T14:42:30;1.65;;;0.50;;
72924;SDS011;61070;50.794;7.054;2022-08-07T14:45:00;1.10;;;0.50;;
72924;SDS011;61070;50.794;7.054;2022-08-07T14:47:29;1.58;;;0.60;;
72924;SDS011;61070;50.794;7.054;2022-08-07T14:49:56;0.95;;;0.30;;
72924;SDS011;61070;50.794;7.054;2022-08-07T14:52:23;1.38;;;0.40;;
72924;SDS011;61070;50.794;7.054;2022-08-07T14:54:49;3.55;;;1.02;;
72924;SDS011;61070;50.794;7.054;2022-08-07T14:57:15;0.63;;;0.47;;
72924;SDS011;61070;50.794;7.054;2022-08-07T14:59:43;1.35;;;0.63;;
72924;SDS011;61070;50.794;7.054;2022-08-07T15:02:22;0.75;;;0.50;;
72924;SDS011;61070;50.794;7.054;2022-08-07T15:04:50;0.38;;;0.38;;
72924;SDS011;61070;50.794;7.054;2022-08-07T15:07:17;2.33;;;0.63;;
72924;SDS011;61070;50.794;7.054;2022-08-07T15:09:46;1.80;;;0.45;;
72924;SDS011;61070;50.794;7.054;2022-08-07T15:12:14;0.95;;;0.47;;
72924;SDS011;61070;50.794;7.054;2022-08-07T15:14:48;0.73;;;0.32;;
72924;SDS011;61070;50.794;7.054;2022-08-07T15:17:18;2.22;;;1.38;;
72924;SDS011;61070;50.794;7.054;2022-08-07T15:19:49;2.05;;;0.80;;
72924;SDS011;61070;50.794;7.054;2022-08-07T15:22:17;4.38;;;0.63;;
72924;SDS011;61070;50.794;7.054;2022-08-07T15:24:45;1.58;;;0.57;;
72924;SDS011;61070;50.794;7.054;2022-08-07T15:27:20;3.35;;;0.75;;
72924;SDS011;61070;50.794;7.054;2022-08-07T15:29:49;1.90;;;0.60;;
72924;SDS011;61070;50.794;7.054;2022-08-07T15:32:17;1.08;;;0.60;;
72924;SDS011;61070;50.794;7.054;2022-08-07T15:34:45;2.90;;;0.68;;
72924;SDS011;61070;50.794;7.054;2022-08-07T15:37:16;1.55;;;0.50;;
72924;SDS011;61070;50.794;7.054;2022-08-07T15:39:46;1.48;;;0.50;;
72924;SDS011;61070;50.794;7.054;2022-08-07T15:44:59;1.60;;;0.60;;
72924;SDS011;61070;50.794;7.054;2022-08-07T15:47:27;1.45;;;0.57;;
72924;SDS011;61070;50.794;7.054;2022-08-07T15:49:58;1.08;;;0.70;;
72924;SDS011;61070;50.794;7.054;2022-08-07T15:52:27;0.82;;;0.50;;
72924;SDS011;61070;50.794;7.054;2022-08-07T15:54:54;2.22;;;0.65;;
72924;SDS011;61070;50.794;7.054;2022-08-07T15:57:25;2.58;;;0.60;;
72924;SDS011;61070;50.794;7.054;2022-08-07T15:59:54;2.70;;;0.77;;
72924;SDS011;61070;50.794;7.054;2022-08-07T16:02:25;1.40;;;0.70;;
72924;SDS011;61070;50.794;7.054;2022-08-07T16:04:59;1.42;;;0.70;;
72924;SDS011;61070;50.794;7.054;2022-08-07T16:07:31;1.73;;;0.68;;
72924;SDS011;61070;50.794;7.054;2022-08-07T16:10:15;3.10;;;0.95;;
72924;SDS011;61070;50.794;7.054;2022-08-07T16:16:09;3.28;;;0.80;;
72924;SDS011;61070;50.794;7.054;2022-08-07T16:18:46;1.70;;;0.50;;
72924;SDS011;61070;50.794;7.054;2022-08-07T16:27:14;1.80;;;0.60;;
72924;SDS011;61070;50.794;7.054;2022-08-07T16:32:51;0.77;;;0.52;;
72924;SDS011;61070;50.794;7.054;2022-08-07T16:35:26;1.10;;;0.40;;
72924;SDS011;61070;50.794;7.054;2022-08-07T16:40:54;1.60;;;0.73;;
72924;SDS011;61070;50.794;7.054;2022-08-07T16:46:40;2.30;;;0.75;;
72924;SDS011;61070;50.794;7.054;2022-08-07T16:49:48;1.10;;;0.40;;
72924;SDS011;61070;50.794;7.054;2022-08-07T16:58:02;0.93;;;0.70;;
72924;SDS011;61070;50.794;7.054;2022-08-07T17:03:19;1.15;;;0.70;;
72924;SDS011;61070;50.794;7.054;2022-08-07T17:11:26;2.40;;;1.00;;
72924;SDS011;61070;50.794;7.054;2022-08-07T17:14:15;4.10;;;0.80;;
72924;SDS011;61070;50.794;7.054;2022-08-07T17:22:07;1.25;;;0.57;;
72924;SDS011;61070;50.794;7.054;2022-08-07T17:24:52;2.47;;;0.40;;
72924;SDS011;61070;50.794;7.054;2022-08-07T17:27:49;1.73;;;0.50;;
72924;SDS011;61070;50.794;7.054;2022-08-07T17:30:25;1.58;;;0.60;;
72924;SDS011;61070;50.794;7.054;2022-08-07T17:33:08;0.60;;;0.50;;
72924;SDS011;61070;50.794;7.054;2022-08-07T17:35:54;3.08;;;0.50;;
72924;SDS011;61070;50.794;7.054;2022-08-07T17:43:35;3.10;;;0.55;;
72924;SDS011;61070;50.794;7.054;2022-08-07T17:48:58;1.00;;;0.60;;
72924;SDS011;61070;50.794;7.054;2022-08-07T17:59:51;2.65;;;0.68;;
72924;SDS011;61070;50.794;7.054;2022-08-07T18:02:29;3.08;;;0.50;;
72924;SDS011;61070;50.794;7.054;2022-08-07T18:08:03;1.05;;;0.60;;
72924;SDS011;61070;50.794;7.054;2022-08-07T18:19:15;2.28;;;0.28;;
72924;SDS011;61070;50.794;7.054;2022-08-07T18:21:52;0.90;;;0.63;;
72924;SDS011;61070;50.794;7.054;2022-08-07T18:24:26;1.10;;;0.50;;
72924;SDS011;61070;50.794;7.054;2022-08-07T18:30:00;1.15;;;0.45;;
72924;SDS011;61070;50.794;7.054;2022-08-07T18:38:26;1.42;;;0.65;;
72924;SDS011;61070;50.794;7.054;2022-08-07T18:41:16;2.67;;;0.57;;
72924;SDS011;61070;50.794;7.054;2022-08-07T18:46:39;7.22;;;1.15;;
72924;SDS011;61070;50.794;7.054;2022-08-07T18:49:20;3.33;;;0.75;;